Time;durP1;ratioP1;P1;durP2;ratioP2;P2;SDS_P1;SDS_P2;PMS_P1;PMS_P2;Temp;Humidity;BMP_temperature;BMP_pressure;BME280_temperature;BME280_humidity;BME280_pressure;Samples;Min_cycle;Max_cycle;Signal;HPM_P1;HPM_P2
2023/10/06 00:01:44;;;;;;;10.27;5.60;;;11.10;99.90;;;;;;5013514;28;20014;-46
2023/10/06 00:04:22;;;;;;;8.20;5.38;;;11.00;99.90;;;;;;5013203;28;20038;-49
2023/10/06 00:06:48;;;;;;;8.75;5.60;;;11.00;99.90;;;;;;5013243;28;20025;-50
2023/10/06 00:09:22;;;;;;;8.32;4.22;;;11.00;99.90;;;;;;5012316;28;20037;-46
2023/10/06 00:11:50;;;;;;;9.75;5.35;;;10.90;99.90;;;;;;5013223;28;20073;-44
2023/10/06 00:16:59;;;;;;;7.05;4.65;;;10.90;99.90;;;;;;5013204;28;20032;-45
2023/10/06 00:19:32;;;;;;;9.40;4.47;;;10.80;99.90;;;;;;5011823;28;20022;-46
2023/10/06 00:24:42;;;;;;;10.45;4.88;;;10.70;99.90;;;;;;5012797;28;20018;-44
2023/10/06 00:27:12;;;;;;;9.98;4.68;;;10.70;99.90;;;;;;5012929;28;20029;-46
2023/10/06 00:29:54;;;;;;;8.68;5.18;;;10.70;99.90;;;;;;5012657;28;20026;-44
2023/10/06 00:32:22;;;;;;;5.40;3.97;;;10.70;99.90;;;;;;5012810;28;20026;-44
2023/10/06 00:34:50;;;;;;;10.10;4.47;;;10.60;99.90;;;;;;5012440;28;20056;-47
2023/10/06 00:37:16;;;;;;;9.35;4.55;;;10.60;99.90;;;;;;5013002;28;20101;-45
2023/10/06 00:39:43;;;;;;;10.25;4.85;;;10.50;99.90;;;;;;5012717;28;20092;-46
2023/10/06 00:42:13;;;;;;;10.55;5.43;;;10.50;99.90;;;;;;5012341;28;20492;-44
2023/10/06 00:44:39;;;;;;;7.82;4.18;;;10.50;99.90;;;;;;5012287;28;20022;-45
2023/10/06 00:47:06;;;;;;;5.80;4.22;;;10.50;99.90;;;;;;5011385;28;20021;-49
2023/10/06 00:49:33;;;;;;;8.05;5.32;;;10.50;99.90;;;;;;5012880;28;20482;-45
2023/10/06 00:52:06;;;;;;;6.40;4.75;;;10.50;99.90;;;;;;5013009;28;20457;-45
2023/10/06 00:57:08;;;;;;;96.43;57.08;;;10.40;99.90;;;;;;5027870;28;20210;-46
2023/10/06 00:59:37;;;;;;;39.13;24.15;;;10.40;99.90;;;;;;5032404;28;20070;-46
2023/10/06 01:02:09;;;;;;;11.70;7.15;;;10.40;99.90;;;;;;5032267;28;20029;-46
2023/10/06 01:04:45;;;;;;;9.77;4.90;;;10.40;99.90;;;;;;5031885;28;20014;-46
2023/10/06 01:07:16;;;;;;;5.47;4.60;;;10.40;99.90;;;;;;5032222;28;20600;-45
2023/10/06 01:09:56;;;;;;;10.15;5.10;;;10.30;99.90;;;;;;5032122;28;20041;-45
2023/10/06 01:12:24;;;;;;;7.53;4.60;;;10.30;99.90;;;;;;5032270;28;20025;-50
2023/10/06 01:14:51;;;;;;;8.48;5.13;;;10.20;99.90;;;;;;5031948;28;20045;-45
2023/10/06 01:17:18;;;;;;;9.63;5.50;;;10.20;99.90;;;;;;5031861;28;20105;-45
2023/10/06 01:19:47;;;;;;;8.38;5.13;;;10.20;99.90;;;;;;5031967;28;20095;-45
2023/10/06 01:22:28;;;;;;;10.55;5.78;;;10.20;99.90;;;;;;5031724;28;20044;-46
2023/10/06 01:24:54;;;;;;;7.88;4.85;;;10.20;99.90;;;;;;5031624;28;20045;-45
2023/10/06 01:27:25;;;;;;;13.13;5.15;;;10.20;99.90;;;;;;5031963;28;20029;-50
2023/10/06 01:32:43;;;;;;;7.80;5.10;;;10.20;99.90;;;;;;5031884;28;20036;-47
2023/10/06 01:35:13;;;;;;;8.02;6.03;;;10.10;99.90;;;;;;5031749;28;20049;-44
2023/10/06 01:37:45;;;;;;;8.68;4.47;;;10.10;99.90;;;;;;5032174;28;20497;-46
2023/10/06 01:42:50;;;;;;;5.63;4.57;;;10.10;99.90;;;;;;5030783;28;20140;-46
2023/10/06 01:45:21;;;;;;;10.88;4.82;;;10.10;99.90;;;;;;5031489;28;20057;-45
2023/10/06 01:47:46;;;;;;;8.10;5.15;;;10.10;99.90;;;;;;5031850;28;20496;-46
2023/10/06 01:50:13;;;;;;;8.18;5.25;;;10.10;99.90;;;;;;5031623;28;20037;-44
2023/10/06 01:52:41;;;;;;;10.85;5.97;;;10.10;99.90;;;;;;5031436;28;20029;-48
2023/10/06 01:55:09;;;;;;;10.75;4.50;;;10.10;99.90;;;;;;5030892;28;20032;-43
2023/10/06 01:57:35;;;;;;;10.25;5.25;;;10.10;99.90;;;;;;5031835;28;20071;-47
2023/10/06 02:00:00;;;;;;;5.50;4.60;;;10.10;99.90;;;;;;5031611;28;20519;-47
2023/10/06 02:02:27;;;;;;;11.23;4.68;;;10.10;99.90;;;;;;5030178;28;20034;-48
2023/10/06 02:04:56;;;;;;;7.80;4.65;;;10.10;99.90;;;;;;5031176;28;20036;-43
2023/10/06 02:07:22;;;;;;;4.50;3.67;;;10.00;99.90;;;;;;5031484;28;20033;-47
2023/10/06 02:09:49;;;;;;;7.15;4.43;;;10.10;99.90;;;;;;5031851;28;20358;-48
2023/10/06 02:12:15;;;;;;;6.78;5.13;;;10.00;99.90;;;;;;5031287;28;20024;-46
2023/10/06 02:14:41;;;;;;;9.18;4.10;;;10.00;99.90;;;;;;5030978;28;20018;-45
2023/10/06 02:17:08;;;;;;;5.93;3.75;;;10.00;99.90;;;;;;5031483;28;20028;-47
2023/10/06 02:19:34;;;;;;;6.72;4.15;;;10.00;99.90;;;;;;5030354;28;20024;-45
2023/10/06 02:22:00;;;;;;;7.65;5.00;;;9.90;99.90;;;;;;5031553;28;20026;-45
2023/10/06 02:24:25;;;;;;;4.43;4.03;;;9.80;99.90;;;;;;5031100;28;20504;-45
2023/10/06 02:26:57;;;;;;;8.13;4.10;;;9.80;99.90;;;;;;5031018;28;20065;-45
2023/10/06 02:29:23;;;;;;;7.53;3.90;;;9.70;99.90;;;;;;5031413;28;20021;-49
2023/10/06 02:31:49;;;;;;;12.27;4.15;;;9.70;99.90;;;;;;5031512;28;20026;-48
2023/10/06 02:34:26;;;;;;;7.45;3.83;;;9.70;99.90;;;;;;5030979;28;20393;-47
2023/10/06 02:36:54;;;;;;;5.80;4.00;;;9.70;99.90;;;;;;5030814;28;20075;-50
2023/10/06 02:39:20;;;;;;;7.75;3.85;;;9.60;99.90;;;;;;5031200;28;20017;-49
2023/10/06 02:41:47;;;;;;;5.72;4.45;;;9.60;99.90;;;;;;5029870;28;20394;-48
2023/10/06 02:44:15;;;;;;;6.32;4.18;;;9.60;99.90;;;;;;5030791;28;20453;-46
2023/10/06 02:46:44;;;;;;;8.60;4.07;;;9.60;99.90;;;;;;5029332;28;20029;-47
2023/10/06 02:49:11;;;;;;;6.90;3.92;;;9.60;99.90;;;;;;5030950;28;20025;-46
2023/10/06 02:51:49;;;;;;;8.57;4.50;;;9.60;99.90;;;;;;5030889;28;20300;-45
2023/10/06 02:56:41;;;;;;;7.05;4.22;;;9.60;99.90;;;;;;5034390;28;20041;-46
2023/10/06 02:59:26;;;;;;;7.07;4.55;;;9.60;99.90;;;;;;5034486;28;20498;-45
2023/10/06 03:01:52;;;;;;;10.00;6.40;;;9.60;99.90;;;;;;5034487;28;20370;-47
2023/10/06 03:04:21;;;;;;;12.93;5.10;;;9.60;99.90;;;;;;5034468;28;20044;-47
2023/10/06 03:06:53;;;;;;;9.43;5.80;;;9.60;99.90;;;;;;5034057;28;20018;-50
2023/10/06 03:09:38;;;;;;;15.90;7.70;;;9.70;99.90;;;;;;5034388;28;20097;-48
2023/10/06 03:12:13;;;;;;;27.30;7.15;;;9.70;99.90;;;;;;5034278;28;20021;-45
2023/10/06 03:14:38;;;;;;;14.53;6.30;;;9.70;99.90;;;;;;5034033;28;20049;-46
2023/10/06 03:17:08;;;;;;;14.23;7.35;;;9.70;99.90;;;;;;5034130;28;20102;-46
2023/10/06 03:19:36;;;;;;;9.10;6.15;;;9.70;99.90;;;;;;5034056;28;20017;-49
2023/10/06 03:22:07;;;;;;;23.30;6.65;;;9.70;99.90;;;;;;5033924;28;20075;-46
2023/10/06 03:24:33;;;;;;;13.05;6.30;;;9.70;99.90;;;;;;5033714;28;20021;-46
2023/10/06 03:27:06;;;;;;;14.80;7.05;;;9.70;99.90;;;;;;5033954;28;20029;-47
2023/10/06 03:29:54;;;;;;;8.07;5.80;;;9.70;99.90;;;;;;5034025;28;20048;-46
2023/10/06 03:32:32;;;;;;;7.88;5.57;;;9.60;99.90;;;;;;5033738;28;20014;-47
2023/10/06 03:35:22;;;;;;;12.15;7.05;;;9.60;99.90;;;;;;5033540;28;20469;-47
2023/10/06 03:38:07;;;;;;;18.25;8.18;;;9.60;99.90;;;;;;5033701;28;20053;-49
2023/10/06 03:40:43;;;;;;;8.80;5.97;;;9.60;99.90;;;;;;5033436;28;20443;-47
2023/10/06 03:43:12;;;;;;;10.82;6.10;;;9.50;99.90;;;;;;5033542;28;20034;-45
2023/10/06 03:45:43;;;;;;;9.13;6.20;;;9.50;99.90;;;;;;5033732;28;20568;-46
2023/10/06 03:48:12;;;;;;;10.65;6.45;;;9.50;99.90;;;;;;5033654;28;20051;-46
2023/10/06 03:50:43;;;;;;;9.48;7.18;;;9.50;99.90;;;;;;5033442;28;20028;-45
2023/10/06 03:53:11;;;;;;;11.02;6.70;;;9.40;99.90;;;;;;5033244;28;20029;-48
2023/10/06 03:55:47;;;;;;;11.57;7.10;;;9.40;99.90;;;;;;5033173;28;20448;-46
2023/10/06 03:58:15;;;;;;;7.45;6.25;;;9.40;99.90;;;;;;5033658;28;20029;-46
2023/10/06 04:00:47;;;;;;;11.02;7.32;;;9.40;99.90;;;;;;5033672;28;20028;-48
2023/10/06 04:03:14;;;;;;;7.28;6.13;;;9.40;99.90;;;;;;5033254;28;20025;-45
2023/10/06 04:05:41;;;;;;;5.80;5.15;;;9.40;99.90;;;;;;5032340;28;20033;-46
2023/10/06 04:08:17;;;;;;;7.70;5.60;;;9.30;99.90;;;;;;5033351;28;20074;-47
2023/10/06 04:10:48;;;;;;;6.18;5.25;;;9.30;99.90;;;;;;5033223;28;20400;-50
2023/10/06 04:13:16;;;;;;;9.18;5.25;;;9.30;99.90;;;;;;5033360;28;20377;-49
2023/10/06 04:15:49;;;;;;;7.88;5.15;;;9.30;99.90;;;;;;5032810;28;20032;-47
2023/10/06 04:18:17;;;;;;;6.90;4.85;;;9.30;99.90;;;;;;5033101;28;20293;-46
2023/10/06 04:20:44;;;;;;;5.45;4.97;;;9.20;99.90;;;;;;5032912;28;20017;-48
2023/10/06 04:23:14;;;;;;;7.60;5.07;;;9.10;99.90;;;;;;5032898;28;20053;-48
2023/10/06 04:25:41;;;;;;;7.05;6.10;;;9.10;99.90;;;;;;5032829;28;20022;-46
2023/10/06 04:28:08;;;;;;;7.57;6.22;;;9.10;99.90;;;;;;5032875;28;20037;-45
2023/10/06 04:30:42;;;;;;;5.97;5.38;;;9.10;99.90;;;;;;5032786;28;20025;-46
2023/10/06 04:33:10;;;;;;;8.57;6.63;;;9.10;99.90;;;;;;5032893;28;20418;-45
2023/10/06 04:35:39;;;;;;;13.73;7.97;;;9.10;99.90;;;;;;5033060;28;20017;-48
2023/10/06 04:38:05;;;;;;;8.75;6.50;;;9.20;99.90;;;;;;5033235;28;20519;-47
2023/10/06 04:40:32;;;;;;;10.82;5.95;;;9.10;99.90;;;;;;5032569;28;20041;-47
2023/10/06 04:42:59;;;;;;;8.68;6.32;;;9.10;99.90;;;;;;5032793;28;20021;-51
2023/10/06 04:45:25;;;;;;;7.95;6.47;;;9.00;99.90;;;;;;5032672;28;20026;-44
2023/10/06 04:47:55;;;;;;;11.63;6.45;;;8.90;99.90;;;;;;5032876;28;20033;-47
2023/10/06 04:50:21;;;;;;;9.88;7.07;;;8.80;99.90;;;;;;5032699;28;20022;-46
2023/10/06 04:52:47;;;;;;;45.83;7.40;;;8.70;99.90;;;;;;5032392;28;20076;-46
2023/10/06 04:55:13;;;;;;;41.25;8.98;;;8.70;99.90;;;;;;5032582;28;20068;-49
2023/10/06 04:57:42;;;;;;;13.20;7.10;;;8.70;99.90;;;;;;5032702;28;20018;-48
2023/10/06 05:00:29;;;;;;;9.38;6.93;;;8.60;99.90;;;;;;5032609;28;20029;-46
2023/10/06 05:02:54;;;;;;;10.45;7.22;;;8.60;99.90;;;;;;5032519;28;20083;-46
2023/10/06 05:05:20;;;;;;;11.85;7.30;;;8.60;99.90;;;;;;5030399;28;20025;-47
2023/10/06 05:07:55;;;;;;;9.65;6.75;;;8.50;99.90;;;;;;5032234;28;20320;-45
2023/10/06 05:10:21;;;;;;;12.65;7.20;;;8.60;99.90;;;;;;5032451;28;20086;-51
2023/10/06 05:12:48;;;;;;;12.73;7.25;;;8.60;99.90;;;;;;5032057;28;20031;-47
2023/10/06 05:15:33;;;;;;;10.88;7.45;;;8.60;99.90;;;;;;5032360;28;20451;-45
2023/10/06 05:18:05;;;;;;;10.43;6.20;;;8.60;99.90;;;;;;5030999;28;20044;-48
2023/10/06 05:20:32;;;;;;;10.02;7.22;;;8.60;99.90;;;;;;5030659;28;20025;-44
2023/10/06 05:23:07;;;;;;;31.55;7.47;;;8.70;99.90;;;;;;5031716;28;20039;-46
2023/10/06 05:25:36;;;;;;;6.78;5.90;;;8.70;99.90;;;;;;5031761;28;20052;-46
2023/10/06 05:28:03;;;;;;;9.18;6.90;;;8.70;99.90;;;;;;5032205;28;20404;-48
2023/10/06 05:30:30;;;;;;;7.45;5.47;;;8.70;99.90;;;;;;5031702;28;20099;-47
2023/10/06 05:33:00;;;;;;;6.53;5.28;;;8.80;99.90;;;;;;5031696;28;20026;-47
2023/10/06 05:35:29;;;;;;;6.95;5.70;;;8.80;99.90;;;;;;5031337;28;20021;-46
2023/10/06 05:37:55;;;;;;;9.10;6.80;;;8.80;99.90;;;;;;5031742;28;20350;-46
2023/10/06 05:40:21;;;;;;;9.77;6.85;;;8.80;99.90;;;;;;5031622;28;20405;-45
2023/10/06 05:42:50;;;;;;;72.85;9.30;;;8.90;99.90;;;;;;5031126;28;20036;-46
2023/10/06 05:45:20;;;;;;;29.73;7.55;;;8.90;99.90;;;;;;5031280;28;20024;-46
2023/10/06 05:47:47;;;;;;;38.72;7.70;;;9.00;99.90;;;;;;5031442;28;20040;-48
2023/10/06 05:50:26;;;;;;;25.77;8.23;;;8.90;99.90;;;;;;5031472;28;20021;-47
2023/10/06 05:52:56;;;;;;;12.52;6.78;;;9.00;99.90;;;;;;5031326;28;20061;-50
2023/10/06 05:55:22;;;;;;;11.68;6.72;;;9.00;99.90;;;;;;5031003;28;20025;-48
2023/10/06 05:57:55;;;;;;;40.30;6.90;;;9.00;99.90;;;;;;5031536;28;20021;-48
2023/10/06 06:00:25;;;;;;;12.63;6.40;;;9.00;99.90;;;;;;5031343;28;20095;-48
2023/10/06 06:02:52;;;;;;;16.92;5.88;;;8.90;99.90;;;;;;5031355;28;20022;-52
2023/10/06 06:05:17;;;;;;;36.42;5.63;;;8.90;99.90;;;;;;5031022;28;20025;-46
2023/10/06 06:07:43;;;;;;;10.10;5.43;;;8.90;99.90;;;;;;5031833;28;20091;-47
2023/10/06 06:10:18;;;;;;;28.30;4.75;;;8.90;99.90;;;;;;5032238;28;20017;-47
2023/10/06 06:12:44;;;;;;;20.87;5.00;;;8.90;99.90;;;;;;5031496;28;20029;-51
2023/10/06 06:15:11;;;;;;;8.73;4.97;;;8.90;99.90;;;;;;5031884;28;20101;-56
2023/10/06 06:17:40;;;;;;;31.73;5.70;;;8.80;99.90;;;;;;5031834;28;20022;-46
2023/10/06 06:20:09;;;;;;;49.88;6.43;;;8.80;99.90;;;;;;5031241;28;20028;-51
2023/10/06 06:22:42;;;;;;;77.00;7.55;;;8.80;99.90;;;;;;5031151;28;20021;-48
2023/10/06 06:25:09;;;;;;;88.78;8.10;;;8.80;99.90;;;;;;5031038;28;20031;-47
2023/10/06 06:27:34;;;;;;;70.20;7.82;;;8.90;99.90;;;;;;5031637;28;20084;-46
2023/10/06 06:30:00;;;;;;;59.83;8.05;;;9.00;99.90;;;;;;5035860;28;20029;-46
2023/10/06 06:32:25;;;;;;;108.05;8.88;;;9.00;99.90;;;;;;5034048;28;20470;-47
2023/10/06 06:34:53;;;;;;;65.07;7.72;;;9.10;99.90;;;;;;5034692;28;20033;-48
2023/10/06 06:37:20;;;;;;;48.97;7.18;;;9.10;99.90;;;;;;5035206;28;20030;-47
2023/10/06 06:39:46;;;;;;;62.58;6.95;;;9.30;99.90;;;;;;5034898;28;20020;-48
2023/10/06 06:42:12;;;;;;;57.20;6.97;;;9.30;99.90;;;;;;5034449;28;20536;-51
2023/10/06 06:44:37;;;;;;;14.30;5.43;;;9.40;99.90;;;;;;5034300;28;20497;-47
2023/10/06 06:47:03;;;;;;;29.60;7.07;;;9.50;99.90;;;;;;5034681;28;20029;-48
2023/10/06 06:49:29;;;;;;;15.73;5.50;;;9.60;99.90;;;;;;5034678;28;20051;-46
2023/10/06 06:51:58;;;;;;;4.50;4.10;;;9.60;99.90;;;;;;5034618;28;20058;-49
2023/10/06 06:54:24;;;;;;;14.35;4.00;;;9.60;99.90;;;;;;5033096;28;20033;-49
2023/10/06 06:56:50;;;;;;;9.38;4.18;;;9.60;99.90;;;;;;5031860;22;20403;-46
2023/10/06 06:59:17;;;;;;;4.00;3.63;;;9.80;99.90;;;;;;4995021;28;20034;-43
2023/10/06 07:01:42;;;;;;;6.65;3.50;;;9.80;99.90;;;;;;4995113;28;20033;-53
2023/10/06 07:04:08;;;;;;;4.43;4.03;;;9.90;99.90;;;;;;4993521;28;20022;-47
2023/10/06 07:06:35;;;;;;;8.82;4.10;;;10.00;99.90;;;;;;4994902;28;20029;-45
2023/10/06 07:09:00;;;;;;;4.60;4.15;;;10.10;99.90;;;;;;4995045;28;20022;-46
2023/10/06 07:11:27;;;;;;;4.53;4.13;;;10.20;99.90;;;;;;4995048;28;20033;-46
2023/10/06 07:13:55;;;;;;;14.85;4.07;;;10.40;99.90;;;;;;4994886;28;20443;-49
2023/10/06 07:16:24;;;;;;;3.92;3.63;;;10.50;99.90;;;;;;4995064;28;20019;-50
2023/10/06 07:18:50;;;;;;;4.63;4.22;;;10.60;99.90;;;;;;4994881;28;20485;-48
2023/10/06 07:21:17;;;;;;;5.13;3.92;;;10.60;99.90;;;;;;4993761;28;20033;-46
2023/10/06 07:23:43;;;;;;;5.55;4.22;;;10.80;99.90;;;;;;4993623;28;20429;-50
2023/10/06 07:26:10;;;;;;;4.97;4.32;;;10.90;99.90;;;;;;4994709;28;20105;-49
2023/10/06 07:28:38;;;;;;;5.22;4.47;;;11.00;99.90;;;;;;4995012;28;20130;-48
2023/10/06 07:31:12;;;;;;;42.38;5.63;;;11.00;99.90;;;;;;4994762;28;20029;-51
2023/10/06 07:33:43;;;;;;;20.40;5.03;;;11.20;99.90;;;;;;4994577;28;20023;-46
2023/10/06 07:36:17;;;;;;;8.75;4.85;;;11.20;99.90;;;;;;4994277;28;20379;-45
2023/10/06 07:38:44;;;;;;;7.60;5.40;;;11.10;99.90;;;;;;4994568;28;20026;-46
2023/10/06 07:41:23;;;;;;;8.52;4.35;;;11.10;99.90;;;;;;4993302;28;20031;-48
2023/10/06 07:43:49;;;;;;;4.80;4.30;;;11.10;99.90;;;;;;4994332;28;20414;-48
2023/10/06 07:46:16;;;;;;;16.88;4.50;;;11.00;99.90;;;;;;4994170;28;20033;-50
2023/10/06 07:48:42;;;;;;;5.07;4.47;;;11.10;99.90;;;;;;4994099;28;20030;-46
2023/10/06 07:51:08;;;;;;;4.30;3.90;;;11.00;99.90;;;;;;4994293;28;20030;-45
2023/10/06 07:53:38;;;;;;;5.43;4.18;;;10.80;99.90;;;;;;4994097;28;20523;-46
2023/10/06 07:56:08;;;;;;;5.63;5.13;;;10.80;99.90;;;;;;4993718;28;20097;-46
2023/10/06 07:58:38;;;;;;;6.18;4.50;;;10.90;99.90;;;;;;4994101;28;20029;-48
2023/10/06 08:01:07;;;;;;;4.30;3.88;;;11.00;99.90;;;;;;4993907;28;20066;-45
2023/10/06 08:03:39;;;;;;;4.30;4.00;;;11.10;99.90;;;;;;4993901;28;20023;-47
2023/10/06 08:06:05;;;;;;;4.85;4.38;;;11.20;99.90;;;;;;4993783;28;20027;-47
2023/10/06 08:08:34;;;;;;;11.48;5.57;;;11.30;99.90;;;;;;4994014;28;20046;-52
2023/10/06 08:11:07;;;;;;;5.35;4.85;;;11.30;99.90;;;;;;4993901;28;20106;-46
2023/10/06 08:13:33;;;;;;;4.95;4.43;;;11.20;99.90;;;;;;4992572;28;20026;-49
2023/10/06 08:16:00;;;;;;;5.88;5.30;;;11.30;99.90;;;;;;4993537;28;20445;-46
2023/10/06 08:18:29;;;;;;;8.10;5.28;;;11.40;99.90;;;;;;4992369;28;20030;-48
2023/10/06 08:21:03;;;;;;;7.35;4.90;;;11.60;99.90;;;;;;4993850;28;20052;-50
2023/10/06 08:23:29;;;;;;;6.80;5.70;;;11.70;99.90;;;;;;4993819;28;20049;-49
2023/10/06 08:25:56;;;;;;;6.47;5.60;;;11.90;99.90;;;;;;4993576;28;20077;-49
2023/10/06 08:28:26;;;;;;;6.43;5.38;;;12.10;99.90;;;;;;4993411;28;20037;-52
2023/10/06 08:30:52;;;;;;;6.30;5.70;;;12.30;99.90;;;;;;4993525;28;20022;-48
2023/10/06 08:33:17;;;;;;;5.40;4.68;;;12.50;99.90;;;;;;4993241;28;20057;-46
2023/10/06 08:35:44;;;;;;;6.55;5.18;;;12.60;99.90;;;;;;4993184;28;20022;-48
2023/10/06 08:38:09;;;;;;;5.95;5.35;;;12.70;99.90;;;;;;4993455;28;20030;-48
2023/10/06 08:40:37;;;;;;;6.75;4.90;;;13.00;99.90;;;;;;4993152;28;20378;-47
2023/10/06 08:43:06;;;;;;;7.38;5.35;;;13.10;99.90;;;;;;4993304;28;20025;-50
2023/10/06 08:45:32;;;;;;;9.43;5.35;;;13.10;99.90;;;;;;4993106;28;20037;-47
2023/10/06 08:47:59;;;;;;;6.43;5.18;;;13.10;99.90;;;;;;4993131;28;20026;-47
2023/10/06 08:50:29;;;;;;;7.07;5.75;;;13.30;99.90;;;;;;4993142;28;20408;-48
2023/10/06 08:52:56;;;;;;;9.75;4.95;;;13.50;99.90;;;;;;4993435;28;20026;-46
2023/10/06 08:55:23;;;;;;;6.03;5.43;;;13.50;99.90;;;;;;4992750;28;20124;-48
2023/10/06 08:57:51;;;;;;;9.80;5.88;;;13.60;99.90;;;;;;4993171;28;20612;-53
2023/10/06 09:00:18;;;;;;;9.13;5.22;;;13.50;99.90;;;;;;4991621;28;20022;-50
2023/10/06 09:02:45;;;;;;;6.32;5.53;;;13.70;99.90;;;;;;4993132;28;20062;-49
2023/10/06 09:05:11;;;;;;;6.68;5.55;;;14.20;99.90;;;;;;4992645;28;20030;-47
2023/10/06 09:07:37;;;;;;;7.22;5.45;;;14.80;99.90;;;;;;4991696;28;20029;-51
2023/10/06 09:10:19;;;;;;;7.25;5.13;;;15.80;99.90;;;;;;4991549;28;20490;-49
2023/10/06 09:12:57;;;;;;;5.72;4.72;;;16.30;99.90;;;;;;4993457;28;20089;-51
2023/10/06 09:15:22;;;;;;;6.80;6.07;;;16.20;99.90;;;;;;4993161;28;20030;-46
2023/10/06 09:17:48;;;;;;;7.90;5.95;;;16.50;99.90;;;;;;4993454;28;20033;-50
2023/10/06 09:20:13;;;;;;;7.90;5.15;;;16.90;99.90;;;;;;4992948;28;20430;-48
2023/10/06 09:22:51;;;;;;;7.85;6.43;;;17.50;99.90;;;;;;4993075;28;20057;-46
2023/10/06 09:25:19;;;;;;;7.05;5.00;;;18.30;99.90;;;;;;4992417;28;20053;-49
2023/10/06 09:27:44;;;;;;;7.78;5.03;;;18.80;99.90;;;;;;4992498;28;20019;-46
2023/10/06 09:30:16;;;;;;;7.57;4.95;;;19.40;99.90;;;;;;4992681;28;20101;-47
2023/10/06 09:32:42;;;;;;;6.57;4.88;;;19.90;99.90;;;;;;4992424;28;20018;-53
2023/10/06 09:35:34;;;;;;;5.97;4.90;;;20.20;99.90;;;;;;4993156;28;20046;-49
2023/10/06 09:38:17;;;;;;;6.88;5.63;;;20.50;99.90;;;;;;4991381;28;20038;-46
2023/10/06 09:40:46;;;;;;;9.93;5.50;;;20.60;99.90;;;;;;4992212;28;20018;-47
2023/10/06 09:43:17;;;;;;;8.57;5.00;;;20.50;99.90;;;;;;4992325;28;20494;-50
2023/10/06 09:45:43;;;;;;;10.32;5.75;;;20.10;99.90;;;;;;4992528;28;20081;-47
2023/10/06 09:48:15;;;;;;;6.13;5.53;;;19.50;99.90;;;;;;4992149;28;20430;-47
2023/10/06 09:50:46;;;;;;;7.65;5.47;;;19.00;99.90;;;;;;4992408;28;20042;-49
2023/10/06 09:53:12;;;;;;;60.90;39.95;;;18.70;99.90;;;;;;4992289;28;20022;-46
2023/10/06 09:55:42;;;;;;;11.38;7.30;;;18.70;99.90;;;;;;4992009;28;20056;-48
2023/10/06 09:58:08;;;;;;;9.32;7.22;;;18.70;99.90;;;;;;4992013;28;20030;-50
2023/10/06 10:00:39;;;;;;;8.75;5.20;;;18.80;99.90;;;;;;4991389;28;20029;-48
2023/10/06 10:03:06;;;;;;;9.00;5.68;;;18.70;99.90;;;;;;4991652;28;20037;-46
2023/10/06 10:05:32;;;;;;;7.65;5.15;;;18.80;99.90;;;;;;4993634;28;20054;-48
2023/10/06 10:07:58;;;;;;;13.25;5.72;;;18.80;99.90;;;;;;4993730;28;20033;-47
2023/10/06 10:10:27;;;;;;;9.32;5.85;;;18.50;99.90;;;;;;4994618;28;20402;-50
2023/10/06 10:13:19;;;;;;;7.82;5.70;;;18.40;99.90;;;;;;4995921;28;20026;-46
2023/10/06 10:16:09;;;;;;;7.78;5.90;;;18.60;99.90;;;;;;4995570;28;20494;-47
2023/10/06 10:18:38;;;;;;;10.57;5.95;;;18.70;99.90;;;;;;4995978;28;20026;-45
2023/10/06 10:21:11;;;;;;;13.50;6.20;;;18.90;99.90;;;;;;4996052;28;20101;-50
2023/10/06 10:23:40;;;;;;;10.13;6.18;;;19.10;99.90;;;;;;4995863;28;20026;-48
2023/10/06 10:26:20;;;;;;;9.07;6.35;;;19.10;99.90;;;;;;4995622;28;20138;-48
2023/10/06 10:29:17;;;;;;;11.32;7.05;;;19.00;99.90;;;;;;4995635;28;20033;-48
2023/10/06 10:31:51;;;;;;;11.50;6.78;;;18.90;99.90;;;;;;4995803;28;20072;-48
2023/10/06 10:34:23;;;;;;;16.00;6.97;;;18.80;99.90;;;;;;4995438;28;20521;-47
2023/10/06 10:37:13;;;;;;;12.55;7.93;;;18.60;99.90;;;;;;4994368;28;20031;-47
2023/10/06 10:39:50;;;;;;;13.27;7.50;;;18.40;99.90;;;;;;4995852;28;20455;-52
2023/10/06 10:42:36;;;;;;;14.45;7.43;;;18.20;99.90;;;;;;4995390;28;20092;-48
2023/10/06 10:45:37;;;;;;;15.95;7.32;;;18.30;99.90;;;;;;4994231;28;20403;-50
2023/10/06 10:48:13;;;;;;;14.40;7.93;;;18.30;99.90;;;;;;4996030;28;20533;-46
2023/10/06 10:51:05;;;;;;;15.15;7.82;;;18.30;99.90;;;;;;4995719;28;20109;-46
2023/10/06 10:53:34;;;;;;;17.08;8.45;;;18.20;99.90;;;;;;4995237;28;20431;-48
2023/10/06 10:56:01;;;;;;;14.55;7.35;;;18.20;99.90;;;;;;4994970;28;20080;-48
2023/10/06 10:58:44;;;;;;;15.73;8.38;;;18.10;99.90;;;;;;4995249;28;20037;-48
2023/10/06 11:01:23;;;;;;;13.77;8.73;;;17.90;99.90;;;;;;4995356;28;20026;-47
2023/10/06 11:04:29;;;;;;;18.85;10.18;;;17.90;99.90;;;;;;4995179;28;20031;-49
2023/10/06 11:06:56;;;;;;;20.58;8.45;;;17.80;99.90;;;;;;4994885;28;20037;-46
2023/10/06 11:09:39;;;;;;;18.42;8.13;;;17.70;99.90;;;;;;4995075;28;20057;-48
2023/10/06 11:12:25;;;;;;;17.88;7.15;;;17.70;99.90;;;;;;4993718;28;20279;-48
2023/10/06 11:14:51;;;;;;;20.05;8.20;;;17.60;99.90;;;;;;4993712;28;20388;-47
2023/10/06 11:17:26;;;;;;;16.80;6.55;;;17.50;99.90;;;;;;4994952;28;20034;-48
2023/10/06 11:20:25;;;;;;;13.57;6.30;;;17.50;99.90;;;;;;4995268;28;20454;-46
2023/10/06 11:22:55;;;;;;;12.02;5.72;;;17.50;99.90;;;;;;4995094;28;20065;-51
2023/10/06 11:25:27;;;;;;;13.15;6.18;;;17.50;99.90;;;;;;4994842;28;20114;-48
2023/10/06 11:28:04;;;;;;;18.42;7.07;;;17.50;99.90;;;;;;4994731;28;20026;-48
2023/10/06 11:30:33;;;;;;;12.85;4.85;;;17.50;99.90;;;;;;4994611;28;20030;-48
2023/10/06 11:33:02;;;;;;;16.35;5.72;;;17.40;99.90;;;;;;4994712;28;20109;-50
2023/10/06 11:35:29;;;;;;;13.48;5.45;;;17.40;99.90;;;;;;4994502;28;20022;-46
2023/10/06 11:37:55;;;;;;;92.05;61.25;;;17.40;99.90;;;;;;4994837;28;20034;-49
2023/10/06 11:40:24;;;;;;;38.70;24.88;;;17.40;99.90;;;;;;4994249;28;20038;-49
2023/10/06 11:42:49;;;;;;;20.02;7.50;;;17.40;99.90;;;;;;4994345;28;20056;-51
2023/10/06 11:45:27;;;;;;;11.07;5.43;;;17.50;99.90;;;;;;4994070;28;20038;-48
2023/10/06 11:47:53;;;;;;;12.30;5.20;;;17.50;99.90;;;;;;4994482;28;20097;-53
2023/10/06 11:50:21;;;;;;;11.82;4.18;;;17.50;99.90;;;;;;4994292;28;20113;-46
2023/10/06 11:52:48;;;;;;;23.63;6.40;;;17.50;99.90;;;;;;4993340;28;20398;-50
2023/10/06 11:55:24;;;;;;;8.48;4.60;;;17.50;99.90;;;;;;4993861;28;20019;-48
2023/10/06 11:57:54;;;;;;;13.65;4.55;;;17.60;99.90;;;;;;4994347;28;20458;-46
2023/10/06 12:00:34;;;;;;;11.25;4.30;;;17.50;99.90;;;;;;4993925;28;20019;-46
2023/10/06 12:03:00;;;;;;;9.02;3.90;;;17.60;99.90;;;;;;4993973;28;20038;-48
2023/10/06 12:05:26;;;;;;;8.35;3.53;;;17.60;99.90;;;;;;4993441;28;20026;-49
2023/10/06 12:07:52;;;;;;;10.00;4.25;;;17.60;99.90;;;;;;4993640;28;20037;-46
2023/10/06 12:10:20;;;;;;;9.98;3.53;;;17.60;99.90;;;;;;4993920;28;20113;-47
2023/10/06 12:12:47;;;;;;;12.05;5.13;;;17.50;99.90;;;;;;4993633;28;20026;-49
2023/10/06 12:15:14;;;;;;;14.98;5.18;;;17.50;99.90;;;;;;4993481;28;20486;-48
2023/10/06 12:17:40;;;;;;;11.93;5.05;;;17.50;99.90;;;;;;4993792;28;20029;-53
2023/10/06 12:20:16;;;;;;;10.32;4.45;;;17.50;99.90;;;;;;4993546;28;20026;-50
2023/10/06 12:22:45;;;;;;;13.82;5.30;;;17.50;99.90;;;;;;4993663;28;20029;-52
2023/10/06 12:25:14;;;;;;;8.02;4.07;;;17.50;99.90;;;;;;4991580;28;20108;-47
2023/10/06 12:27:43;;;;;;;7.22;3.80;;;17.50;99.90;;;;;;4993227;28;20490;-53
2023/10/06 12:30:09;;;;;;;9.05;3.83;;;17.60;99.90;;;;;;4993683;28;20022;-52
2023/10/06 12:32:35;;;;;;;13.00;3.80;;;17.70;99.90;;;;;;4993660;28;20506;-47
2023/10/06 12:35:10;;;;;;;10.82;3.42;;;17.70;99.90;;;;;;4993361;28;20030;-49
2023/10/06 12:37:40;;;;;;;7.72;3.35;;;17.90;99.90;;;;;;4993641;28;20105;-52
2023/10/06 12:40:08;;;;;;;10.45;4.40;;;17.90;99.90;;;;;;4993523;28;20026;-51
2023/10/06 12:42:42;;;;;;;8.75;4.07;;;18.00;99.90;;;;;;4993175;28;20105;-49
2023/10/06 12:45:12;;;;;;;12.70;4.03;;;18.10;99.90;;;;;;4993202;28;20402;-49
2023/10/06 12:47:41;;;;;;;12.73;4.22;;;18.00;99.90;;;;;;4992907;28;20019;-48
2023/10/06 12:50:08;;;;;;;29.35;5.43;;;18.10;99.90;;;;;;4993151;28;20034;-43
2023/10/06 12:52:37;;;;;;;12.13;4.97;;;18.00;99.90;;;;;;4993081;28;20026;-48
2023/10/06 12:55:09;;;;;;;7.63;4.18;;;18.00;99.90;;;;;;4992748;28;20030;-49
2023/10/06 12:57:35;;;;;;;12.32;5.43;;;18.00;99.90;;;;;;4992714;28;20084;-53
2023/10/06 13:00:02;;;;;;;11.02;4.07;;;18.00;99.90;;;;;;4992890;28;20058;-48
2023/10/06 13:02:29;;;;;;;10.95;4.25;;;18.00;99.90;;;;;;4993253;28;20101;-50
2023/10/06 13:04:54;;;;;;;6.80;3.75;;;18.00;99.90;;;;;;4993084;28;20532;-45
2023/10/06 13:07:20;;;;;;;13.45;5.60;;;18.10;99.90;;;;;;4993295;28;20050;-48
2023/10/06 13:09:49;;;;;;;10.32;4.22;;;18.10;99.90;;;;;;4993003;28;20505;-49
2023/10/06 13:12:16;;;;;;;7.75;3.78;;;18.10;99.90;;;;;;4991457;28;20026;-44
2023/10/06 13:14:42;;;;;;;14.73;3.88;;;18.20;99.90;;;;;;4992486;28;20028;-45
2023/10/06 13:17:08;;;;;;;19.90;5.43;;;18.10;99.90;;;;;;4993271;28;20026;-44